createdAt,value
2022-10-24T00:02:22.884Z,16.76
2022-10-24T00:04:49.748Z,16.71
2022-10-24T00:07:16.541Z,16.63
2022-10-24T00:09:42.994Z,16.67
2022-10-24T00:12:09.551Z,16.73
2022-10-24T00:14:36.531Z,16.71
2022-10-24T00:17:04.035Z,16.63
2022-10-24T00:19:30.484Z,16.60
2022-10-24T00:21:56.927Z,16.65
2022-10-24T00:24:25.199Z,16.66
2022-10-24T00:26:52.578Z,16.65
2022-10-24T00:29:19.428Z,16.62
2022-10-24T00:31:46.006Z,16.63
2022-10-24T00:34:12.531Z,16.57
2022-10-24T00:36:38.992Z,16.62
2022-10-24T00:39:05.496Z,16.61
2022-10-24T00:41:38.872Z,16.63
2022-10-24T00:44:33.164Z,16.57
2022-10-24T00:47:15.886Z,16.45
2022-10-24T00:49:53.256Z,16.40
2022-10-24T00:52:26.144Z,16.31
2022-10-24T00:54:55.024Z,16.25
2022-10-24T00:57:27.392Z,16.22
2022-10-24T00:59:59.450Z,16.17
2022-10-24T01:02:26.915Z,16.21
2022-10-24T01:04:56.463Z,16.19
2022-10-24T01:08:06.328Z,16.16
2022-10-24T01:10:36.950Z,16.17
2022-10-24T01:13:48.908Z,16.21
2022-10-24T01:16:23.190Z,16.26
2022-10-24T01:19:04.175Z,16.28
2022-10-24T01:21:37.586Z,16.27
2022-10-24T01:24:09.017Z,16.19
2022-10-24T01:27:12.339Z,16.23
2022-10-24T01:29:45.024Z,16.29
2022-10-24T01:32:29.097Z,16.25
2022-10-24T01:35:35.726Z,16.25
2022-10-24T01:38:17.279Z,16.15
2022-10-24T01:40:52.814Z,16.16
2022-10-24T01:43:24.979Z,16.16
2022-10-24T01:45:56.796Z,16.19
2022-10-24T01:48:26.093Z,16.20
2022-10-24T01:50:55.870Z,16.19
2022-10-24T01:53:25.113Z,16.16
2022-10-24T01:55:52.484Z,16.12
2022-10-24T01:58:18.938Z,16.13
2022-10-24T02:00:48.486Z,16.07
2022-10-24T02:03:23.954Z,16.05
2022-10-24T02:05:56.232Z,16.03
2022-10-24T02:08:30.141Z,16.02
2022-10-24T02:11:01.890Z,16.00
2022-10-24T02:13:39.176Z,16.04
2022-10-24T02:16:06.542Z,16.05
2022-10-24T02:18:34.193Z,16.03
2022-10-24T02:21:14.233Z,16.01
2022-10-24T02:23:46.795Z,15.90
2022-10-24T02:26:23.395Z,15.89
2022-10-24T02:28:54.700Z,15.96
2022-10-24T02:31:23.657Z,15.95
2022-10-24T02:33:53.168Z,15.95
2022-10-24T02:36:27.252Z,15.91
2022-10-24T02:38:56.178Z,15.92
2022-10-24T02:41:27.825Z,15.95
2022-10-24T02:43:56.788Z,15.97
2022-10-24T02:46:24.714Z,15.96
2022-10-24T02:48:56.237Z,15.97
2022-10-24T02:51:27.403Z,15.98
2022-10-24T02:53:53.744Z,15.97
2022-10-24T02:56:20.185Z,15.96
2022-10-24T02:58:46.658Z,15.97
2022-10-24T03:01:13.217Z,15.99
2022-10-24T03:03:39.787Z,16.02
2022-10-24T03:06:06.623Z,15.98
2022-10-24T03:08:33.257Z,15.96
2022-10-24T03:11:00.082Z,15.94
2022-10-24T03:13:26.568Z,15.89
2022-10-24T03:15:53.020Z,15.90
2022-10-24T03:18:19.461Z,15.89
2022-10-24T03:20:46.464Z,15.85
2022-10-24T03:23:12.931Z,15.90
2022-10-24T03:25:39.353Z,15.96
2022-10-24T03:28:05.787Z,15.91
2022-10-24T03:30:32.206Z,15.94
2022-10-24T03:32:58.664Z,15.92
2022-10-24T03:35:25.166Z,15.88
2022-10-24T03:37:51.614Z,15.82
2022-10-24T03:40:18.155Z,15.78
2022-10-24T03:42:44.900Z,15.68
2022-10-24T03:45:11.464Z,15.79
2022-10-24T03:47:38.024Z,15.78
2022-10-24T03:50:05.784Z,15.71
2022-10-24T03:52:32.416Z,15.72
2022-10-24T03:54:58.942Z,15.65
2022-10-24T03:57:26.182Z,15.72
2022-10-24T03:59:52.619Z,15.66
2022-10-24T04:02:19.145Z,15.62
2022-10-24T04:04:45.567Z,15.66
2022-10-24T04:07:12.016Z,15.77
2022-10-24T04:09:38.491Z,15.74
2022-10-24T04:12:05.172Z,15.63
2022-10-24T04:14:31.634Z,15.62
2022-10-24T04:16:58.080Z,15.63
2022-10-24T04:19:24.520Z,15.57
2022-10-24T04:21:50.993Z,15.51
2022-10-24T04:24:17.698Z,15.50
2022-10-24T04:26:44.243Z,15.53
2022-10-24T04:29:10.993Z,15.44
2022-10-24T04:31:37.438Z,15.43
2022-10-24T04:34:05.499Z,15.43
2022-10-24T04:36:33.098Z,15.38
2022-10-24T04:41:27.223Z,15.42
2022-10-24T04:43:53.741Z,15.43
2022-10-24T04:46:20.181Z,15.41
2022-10-24T04:48:46.732Z,15.41
2022-10-24T04:51:14.122Z,15.40
2022-10-24T04:53:42.632Z,15.40
2022-10-24T04:56:09.079Z,15.43
2022-10-24T04:58:35.525Z,15.47
2022-10-24T05:01:02.146Z,15.52
2022-10-24T05:03:28.755Z,15.57
2022-10-24T05:05:55.241Z,15.53
2022-10-24T05:08:21.744Z,15.50
2022-10-24T05:10:48.191Z,15.45
2022-10-24T05:13:14.622Z,15.41
2022-10-24T05:15:41.758Z,15.43
2022-10-24T05:18:08.213Z,15.39
2022-10-24T05:20:34.971Z,15.29
2022-10-24T05:23:01.437Z,15.24
2022-10-24T05:25:27.970Z,15.23
2022-10-24T05:27:54.483Z,15.17
2022-10-24T05:30:21.381Z,15.13
2022-10-24T05:32:48.292Z,15.05
2022-10-24T05:35:15.065Z,14.98
2022-10-24T05:37:42.304Z,14.96
2022-10-24T05:40:10.620Z,14.88
2022-10-24T05:42:38.613Z,14.78
2022-10-24T05:45:07.158Z,14.73
2022-10-24T05:47:33.672Z,14.78
2022-10-24T05:50:00.061Z,14.75
2022-10-24T05:52:26.649Z,14.72
2022-10-24T05:55:06.745Z,14.76
2022-10-24T05:57:34.128Z,14.67
2022-10-24T06:00:00.861Z,14.64
2022-10-24T06:02:27.565Z,14.67
2022-10-24T06:04:56.041Z,14.70
2022-10-24T06:07:22.841Z,14.75
2022-10-24T06:09:49.301Z,14.76
2022-10-24T06:12:15.997Z,14.81
2022-10-24T06:14:42.493Z,14.82
2022-10-24T06:17:14.862Z,14.82
2022-10-24T06:19:41.489Z,14.92
2022-10-24T06:22:09.528Z,14.97
2022-10-24T06:24:37.712Z,14.98
2022-10-24T06:27:05.929Z,14.88
2022-10-24T06:29:32.741Z,14.96
2022-10-24T06:31:59.521Z,15.00
2022-10-24T06:34:26.115Z,15.09
2022-10-24T06:36:52.649Z,15.33
2022-10-24T06:39:19.373Z,15.34
2022-10-24T06:41:46.009Z,15.36
2022-10-24T06:44:12.504Z,15.25
2022-10-24T06:46:38.921Z,15.12
2022-10-24T06:49:05.391Z,15.19
2022-10-24T06:51:31.860Z,15.45
2022-10-24T06:54:00.231Z,15.65
2022-10-24T06:56:26.787Z,15.88
2022-10-24T06:58:53.236Z,15.94
2022-10-24T07:01:23.416Z,15.83
2022-10-24T07:03:50.694Z,15.60
2022-10-24T07:06:26.518Z,15.75
2022-10-24T07:08:56.160Z,15.63
2022-10-24T07:11:23.389Z,15.61
2022-10-24T07:13:49.929Z,15.78
2022-10-24T07:16:16.591Z,15.90
2022-10-24T07:18:43.955Z,15.90
2022-10-24T07:21:31.317Z,15.87
2022-10-24T07:23:58.363Z,15.99
2022-10-24T07:26:26.467Z,16.28
2022-10-24T07:28:58.554Z,16.31
2022-10-24T07:31:28.637Z,16.25
2022-10-24T07:33:55.976Z,16.30
2022-10-24T07:36:25.075Z,16.12
2022-10-24T07:38:54.005Z,16.03
2022-10-24T07:41:20.804Z,16.14
2022-10-24T07:43:47.561Z,16.13
2022-10-24T07:46:16.292Z,16.20
2022-10-24T07:48:42.816Z,16.28
2022-10-24T07:51:11.687Z,16.23
2022-10-24T07:53:38.651Z,16.23
2022-10-24T07:56:09.345Z,16.49
2022-10-24T07:58:36.933Z,16.55
2022-10-24T08:01:18.694Z,16.74
2022-10-24T08:03:45.996Z,16.85
2022-10-24T08:06:16.280Z,16.67
2022-10-24T08:08:43.209Z,16.68
2022-10-24T08:11:12.464Z,16.81
2022-10-24T08:13:39.247Z,17.03
2022-10-24T08:16:07.559Z,17.20
2022-10-24T08:18:38.715Z,17.34
2022-10-24T08:21:08.738Z,17.52
2022-10-24T08:23:37.298Z,17.61
2022-10-24T08:26:07.669Z,17.81
2022-10-24T08:28:34.245Z,17.93
2022-10-24T08:31:03.918Z,18.01
2022-10-24T08:37:17.396Z,18.17
2022-10-24T08:39:47.871Z,18.07
2022-10-24T08:42:45.969Z,18.00
2022-10-24T08:45:25.571Z,18.02
2022-10-24T08:48:17.492Z,18.07
2022-10-24T08:50:49.278Z,18.15
2022-10-24T08:53:28.989Z,18.21
2022-10-24T08:55:59.604Z,18.17
2022-10-24T08:58:46.590Z,18.22
2022-10-24T09:01:32.718Z,18.28
2022-10-24T09:04:01.501Z,18.34
2022-10-24T09:06:31.480Z,18.38
2022-10-24T09:09:02.292Z,18.42
2022-10-24T09:11:36.763Z,18.50
2022-10-24T09:14:12.313Z,18.57
2022-10-24T09:16:41.476Z,18.63
2022-10-24T09:19:13.603Z,18.65
2022-10-24T09:21:42.289Z,18.75
2022-10-24T09:24:28.678Z,18.80
2022-10-24T09:26:55.392Z,18.86
2022-10-24T09:29:21.881Z,18.86
2022-10-24T09:31:49.837Z,18.83
2022-10-24T09:34:17.189Z,18.83
2022-10-24T09:36:44.568Z,18.83
2022-10-24T09:39:29.091Z,18.89
2022-10-24T09:41:56.514Z,18.97
2022-10-24T09:44:37.804Z,19.02
2022-10-24T09:47:06.611Z,19.06
2022-10-24T09:49:36.752Z,19.12
2022-10-24T09:52:24.388Z,19.17
2022-10-24T09:55:25.430Z,19.19
2022-10-24T09:57:55.093Z,19.19
2022-10-24T10:00:29.513Z,19.17
2022-10-24T10:03:06.510Z,19.18
2022-10-24T10:05:45.784Z,19.21
2022-10-24T10:08:19.941Z,19.23
2022-10-24T10:11:01.398Z,19.46
2022-10-24T10:13:28.708Z,19.60
2022-10-24T10:16:01.026Z,19.70
2022-10-24T10:18:35.379Z,19.91
2022-10-24T10:21:22.038Z,20.11
2022-10-24T10:23:53.786Z,20.22
2022-10-24T10:26:24.899Z,20.26
2022-10-24T10:28:54.375Z,20.42
2022-10-24T10:31:46.627Z,20.43
2022-10-24T10:34:47.112Z,20.53
2022-10-24T10:37:33.287Z,20.73
2022-10-24T10:40:24.432Z,20.88
2022-10-24T10:42:57.018Z,20.78
2022-10-24T10:45:26.368Z,20.73
2022-10-24T10:48:15.770Z,20.85
2022-10-24T10:50:57.308Z,20.89
2022-10-24T10:53:33.069Z,21.09
2022-10-24T10:56:22.560Z,21.17
2022-10-24T10:59:12.357Z,21.19
2022-10-24T11:02:15.068Z,21.23
2022-10-24T11:05:06.542Z,21.26
2022-10-24T11:08:01.817Z,21.43
2022-10-24T11:10:36.865Z,21.48
2022-10-24T11:13:09.954Z,21.52
2022-10-24T11:15:42.356Z,21.63
2022-10-24T11:18:35.439Z,21.64
2022-10-24T11:21:09.398Z,21.75
2022-10-24T11:23:50.268Z,21.76
2022-10-24T11:26:16.568Z,21.86
2022-10-24T11:29:20.560Z,21.98
2022-10-24T11:31:52.615Z,21.99
2022-10-24T11:34:21.961Z,22.00
2022-10-24T11:36:54.815Z,22.13
2022-10-24T11:39:42.597Z,22.10
2022-10-24T11:42:21.219Z,22.15
2022-10-24T11:44:53.666Z,22.22
2022-10-24T11:47:26.125Z,22.25
2022-10-24T11:50:07.197Z,22.27
2022-10-24T11:52:40.142Z,22.26
2022-10-24T11:55:11.612Z,22.18
2022-10-24T11:57:39.852Z,22.26
2022-10-24T12:00:06.779Z,22.36
2022-10-24T12:02:58.162Z,22.41
2022-10-24T12:06:10.181Z,22.30
2022-10-24T12:08:45.219Z,22.45
2022-10-24T12:11:33.113Z,22.44
2022-10-24T12:14:21.312Z,22.51
2022-10-24T12:17:06.073Z,22.45
2022-10-24T12:19:33.522Z,22.45
2022-10-24T12:22:04.509Z,22.50
2022-10-24T12:24:36.346Z,22.60
2022-10-24T12:27:06.897Z,22.63
2022-10-24T12:29:36.178Z,22.60
2022-10-24T12:32:30.227Z,22.64
2022-10-24T12:35:25.306Z,22.75
2022-10-24T12:37:46.918Z,22.65
2022-10-24T12:40:47.547Z,22.67
2022-10-24T12:43:28.033Z,22.69
2022-10-24T12:45:56.045Z,22.74
2022-10-24T12:48:36.195Z,22.67
2022-10-24T12:51:04.459Z,22.71
2022-10-24T12:53:35.296Z,22.81
2022-10-24T12:56:07.406Z,22.87
2022-10-24T12:58:39.704Z,22.97
2022-10-24T13:01:08.514Z,22.90
2022-10-24T13:04:03.037Z,22.81
2022-10-24T13:06:46.483Z,22.75
2022-10-24T13:10:01.409Z,22.74
2022-10-24T13:12:43.141Z,22.62
2022-10-24T13:15:39.846Z,22.64
2022-10-24T13:18:15.252Z,22.59
2022-10-24T13:20:46.651Z,22.60
2022-10-24T13:23:25.542Z,22.70
2022-10-24T13:25:57.125Z,22.81
2022-10-24T13:28:23.462Z,22.93
2022-10-24T13:30:58.691Z,23.00
2022-10-24T13:33:31.984Z,23.00
2022-10-24T13:36:17.898Z,22.96
2022-10-24T13:38:56.816Z,22.89
2022-10-24T13:41:42.003Z,22.92
2022-10-24T13:44:37.619Z,23.00
2022-10-24T13:47:10.106Z,23.08
2022-10-24T13:49:41.732Z,23.16
2022-10-24T13:52:16.962Z,23.05
2022-10-24T13:54:48.289Z,23.01
2022-10-24T13:57:33.957Z,22.87
2022-10-24T14:00:05.162Z,22.79
2022-10-24T14:02:38.479Z,22.86
2022-10-24T14:05:05.492Z,23.02
2022-10-24T14:07:33.796Z,23.06
2022-10-24T14:10:06.727Z,23.13
2022-10-24T14:12:36.330Z,23.17
2022-10-24T14:15:04.241Z,23.17
2022-10-24T14:17:34.546Z,23.09
2022-10-24T14:20:09.602Z,23.03
2022-10-24T14:22:40.918Z,23.05
2022-10-24T14:25:24.140Z,23.02
2022-10-24T14:27:52.329Z,22.98
2022-10-24T14:30:22.110Z,22.97
2022-10-24T14:32:49.069Z,23.05
2022-10-24T14:35:16.525Z,23.02
2022-10-24T14:37:44.048Z,23.04
2022-10-24T14:40:18.546Z,23.01
2022-10-24T14:42:46.455Z,23.03
2022-10-24T14:45:30.952Z,23.01
2022-10-24T14:47:59.267Z,22.99
2022-10-24T14:50:43.581Z,22.94
2022-10-24T14:53:27.598Z,22.87
2022-10-24T14:55:57.983Z,22.85
2022-10-24T14:58:30.344Z,22.82
2022-10-24T15:00:58.421Z,22.73
2022-10-24T15:03:26.772Z,22.72
2022-10-24T15:05:55.016Z,22.67
2022-10-24T15:09:02.393Z,22.65
2022-10-24T15:11:37.887Z,22.61
2022-10-24T15:14:07.616Z,22.59
2022-10-24T15:16:40.703Z,22.57
2022-10-24T15:19:14.637Z,22.57
2022-10-24T15:21:46.640Z,22.55
2022-10-24T15:24:24.827Z,22.48
2022-10-24T15:26:51.734Z,22.45
2022-10-24T15:29:21.639Z,22.42
2022-10-24T15:31:50.422Z,22.40
2022-10-24T15:34:23.453Z,22.34
2022-10-24T15:36:52.544Z,22.28
2022-10-24T15:39:24.591Z,22.22
2022-10-24T15:41:52.300Z,22.15
2022-10-24T15:44:21.849Z,22.10
2022-10-24T15:46:48.837Z,22.08
2022-10-24T15:49:15.579Z,22.01
2022-10-24T15:51:48.936Z,21.92
2022-10-24T15:54:19.606Z,21.85
2022-10-24T15:56:46.209Z,21.77
2022-10-24T15:59:12.695Z,21.70
2022-10-24T16:02:13.916Z,21.71
2022-10-24T16:04:40.572Z,21.68
2022-10-24T16:07:07.044Z,21.65
2022-10-24T16:09:33.477Z,21.55
2022-10-24T16:11:59.934Z,21.43
2022-10-24T16:14:26.580Z,21.27
2022-10-24T16:16:54.990Z,21.20
2022-10-24T16:19:21.848Z,21.13
2022-10-24T16:21:48.639Z,21.08
2022-10-24T16:24:15.103Z,21.03
2022-10-24T16:26:41.634Z,21.00
2022-10-24T16:29:08.101Z,20.96
2022-10-24T16:31:34.678Z,20.92
2022-10-24T16:34:01.336Z,20.92
2022-10-24T16:36:28.711Z,20.89
2022-10-24T16:38:55.513Z,20.82
2022-10-24T16:41:24.606Z,20.75
2022-10-24T16:43:54.598Z,20.67
2022-10-24T16:46:22.129Z,20.61
2022-10-24T16:48:49.507Z,20.60
2022-10-24T16:51:22.341Z,20.55
2022-10-24T16:53:49.142Z,20.48
2022-10-24T16:56:16.178Z,20.41
2022-10-24T16:58:43.372Z,20.37
2022-10-24T17:01:13.403Z,20.29
2022-10-24T17:03:42.181Z,20.21
2022-10-24T17:06:09.162Z,20.16
2022-10-24T17:08:35.743Z,20.12
2022-10-24T17:11:03.239Z,20.04
2022-10-24T17:13:29.959Z,19.99
2022-10-24T17:15:56.715Z,19.95
2022-10-24T17:18:25.332Z,19.92
2022-10-24T17:20:54.446Z,19.89
2022-10-24T17:23:22.866Z,19.84
2022-10-24T17:25:49.339Z,19.73
2022-10-24T17:28:16.205Z,19.65
2022-10-24T17:30:43.472Z,19.64
2022-10-24T17:33:11.229Z,19.67
2022-10-24T17:35:45.142Z,19.71
2022-10-24T17:38:26.069Z,19.74
2022-10-24T17:40:54.541Z,19.71
2022-10-24T17:43:23.655Z,19.65
2022-10-24T17:45:51.075Z,19.57
2022-10-24T17:48:18.446Z,19.45
2022-10-24T17:50:45.558Z,19.40
2022-10-24T17:53:17.621Z,19.37
2022-10-24T17:55:46.633Z,19.39
2022-10-24T17:58:14.658Z,19.39
2022-10-24T18:00:41.445Z,19.43
2022-10-24T18:03:11.052Z,19.42
2022-10-24T18:05:38.781Z,19.40
2022-10-24T18:08:07.901Z,19.39
2022-10-24T18:10:36.207Z,19.36
2022-10-24T18:13:02.673Z,19.30
2022-10-24T18:15:29.161Z,19.25
2022-10-24T18:17:55.618Z,19.20
2022-10-24T18:20:22.072Z,19.13
2022-10-24T18:22:48.915Z,19.06
2022-10-24T18:25:20.189Z,18.95
2022-10-24T18:27:49.873Z,18.87
2022-10-24T18:30:16.689Z,18.85
2022-10-24T18:32:44.186Z,18.85
2022-10-24T18:35:10.931Z,18.89
2022-10-24T18:37:37.654Z,18.92
2022-10-24T18:40:05.942Z,18.93
2022-10-24T18:42:41.449Z,18.86
2022-10-24T18:45:11.496Z,18.83
2022-10-24T18:47:38.131Z,18.79
2022-10-24T18:50:04.976Z,18.78
2022-10-24T18:52:45.838Z,18.79
2022-10-24T18:55:21.463Z,18.80
2022-10-24T18:57:49.225Z,18.79
2022-10-24T19:00:27.333Z,18.79
2022-10-24T19:03:00.161Z,18.79
2022-10-24T19:05:47.900Z,18.83
2022-10-24T19:08:30.075Z,18.84
2022-10-24T19:10:56.912Z,18.84
2022-10-24T19:13:27.230Z,18.78
2022-10-24T19:16:00.913Z,18.77
2022-10-24T19:18:31.305Z,18.71
2022-10-24T19:20:58.957Z,18.60
2022-10-24T19:27:12.247Z,18.48
2022-10-24T19:29:38.666Z,18.50
2022-10-24T19:32:05.301Z,18.53
2022-10-24T19:34:31.769Z,18.58
2022-10-24T19:36:58.204Z,18.63
2022-10-24T19:39:24.755Z,18.62
2022-10-24T19:41:51.215Z,18.52
2022-10-24T19:44:17.711Z,18.43
2022-10-24T19:46:44.132Z,18.42
2022-10-24T19:49:10.672Z,18.42
2022-10-24T19:51:37.097Z,18.39
2022-10-24T19:54:03.649Z,18.39
2022-10-24T19:56:31.335Z,18.33
2022-10-24T19:58:57.782Z,18.25
2022-10-24T20:01:27.482Z,18.21
2022-10-24T20:03:57.690Z,18.24
2022-10-24T20:06:25.723Z,18.24
2022-10-24T20:08:52.360Z,18.27
2022-10-24T20:11:20.553Z,18.35
2022-10-24T20:13:47.600Z,18.39
2022-10-24T20:16:14.246Z,18.33
2022-10-24T20:18:42.968Z,18.34
2022-10-24T20:21:11.963Z,18.26
2022-10-24T20:23:40.569Z,18.26
2022-10-24T20:26:13.284Z,18.26
2022-10-24T20:28:45.412Z,18.25
2022-10-24T20:31:22.491Z,18.28
2022-10-24T20:33:49.828Z,18.32
2022-10-24T20:36:16.342Z,18.32
2022-10-24T20:38:42.778Z,18.33
2022-10-24T20:41:09.221Z,18.33
2022-10-24T20:43:35.771Z,18.32
2022-10-24T20:46:06.487Z,18.34
2022-10-24T20:48:33.782Z,18.34
2022-10-24T20:51:14.286Z,18.33
2022-10-24T20:53:41.799Z,18.29
2022-10-24T20:56:17.561Z,18.29
2022-10-24T20:58:44.876Z,18.27
2022-10-24T21:01:11.299Z,18.28
2022-10-24T21:03:38.273Z,18.31
2022-10-24T21:06:13.570Z,18.29
2022-10-24T21:08:40.018Z,18.31
2022-10-24T21:11:07.223Z,18.30
2022-10-24T21:13:33.934Z,18.29
2022-10-24T21:16:02.100Z,18.28
2022-10-24T21:18:28.509Z,18.25
2022-10-24T21:21:41.595Z,18.26
2022-10-24T21:24:12.222Z,18.23
2022-10-24T21:26:38.977Z,18.19
2022-10-24T21:29:31.630Z,18.21
2022-10-24T21:31:52.828Z,18.15
2022-10-24T21:34:20.069Z,18.13
2022-10-24T21:36:46.542Z,18.16
2022-10-24T21:39:15.365Z,18.14
2022-10-24T21:41:42.120Z,18.12
2022-10-24T21:44:08.642Z,18.08
2022-10-24T21:46:35.062Z,18.10
2022-10-24T21:49:01.516Z,18.09
2022-10-24T21:51:34.625Z,17.95
2022-10-24T21:54:14.121Z,17.92
2022-10-24T21:56:40.610Z,17.90
2022-10-24T21:59:12.686Z,17.84
2022-10-24T22:01:55.325Z,17.78
2022-10-24T22:04:21.941Z,17.75
2022-10-24T22:06:48.846Z,17.80
2022-10-24T22:09:52.249Z,17.87
2022-10-24T22:12:31.489Z,17.80
2022-10-24T22:15:55.203Z,17.77
2022-10-24T22:18:23.132Z,17.73
2022-10-24T22:20:50.091Z,17.77
2022-10-24T22:23:16.587Z,17.79
2022-10-24T22:25:43.107Z,17.82
2022-10-24T22:28:09.569Z,17.74
2022-10-24T22:30:37.583Z,17.71
2022-10-24T22:33:05.017Z,17.63
2022-10-24T22:35:32.063Z,17.62
2022-10-24T22:37:58.852Z,17.64
2022-10-24T22:40:31.044Z,17.68
2022-10-24T22:42:57.944Z,17.73
2022-10-24T22:45:24.786Z,17.80
2022-10-24T22:47:56.995Z,17.81
2022-10-24T22:50:53.883Z,17.81
2022-10-24T22:53:24.936Z,17.81
2022-10-24T22:55:58.781Z,17.77
2022-10-24T22:58:25.526Z,17.78
2022-10-24T23:00:58.664Z,17.74
2022-10-24T23:03:50.928Z,17.73
2022-10-24T23:06:23.014Z,17.56
2022-10-24T23:08:49.418Z,17.42
2022-10-24T23:11:16.114Z,17.43
2022-10-24T23:13:42.892Z,17.44
2022-10-24T23:16:35.951Z,17.39
2022-10-24T23:19:14.980Z,17.34
2022-10-24T23:21:52.988Z,17.30
2022-10-24T23:24:19.652Z,17.42
2022-10-24T23:27:11.147Z,17.43
2022-10-24T23:29:41.724Z,17.43
2022-10-24T23:32:20.189Z,17.43
2022-10-24T23:34:47.183Z,17.36
2022-10-24T23:37:31.968Z,17.37
2022-10-24T23:40:00.617Z,17.38
2022-10-24T23:42:27.312Z,17.35
2022-10-24T23:44:54.104Z,17.37
2022-10-24T23:47:20.474Z,17.40
2022-10-24T23:50:00.865Z,17.34
2022-10-24T23:52:37.157Z,17.21
2022-10-24T23:55:04.163Z,17.08
2022-10-24T23:57:30.813Z,17.08
2022-10-24T23:59:57.242Z,17.08
